Time;durP1;ratioP1;P1;durP2;ratioP2;P2;SDS_P1;SDS_P2;PMS_P1;PMS_P2;Temp;Humidity;BMP_temperature;BMP_pressure;BME280_temperature;BME280_humidity;BME280_pressure;Samples;Min_cycle;Max_cycle;Signal;HPM_P1;HPM_P2
2022/10/01 05:00:05;;;;;;;2.40;2.20;;;10.90;97.20;;;;;;1700769;29;20257;-71
2022/10/01 05:00:55;;;;;;;1.83;1.73;;;10.90;97.20;;;;;;1700908;29;20207;-71
2022/10/01 05:01:47;;;;;;;2.37;1.90;;;10.90;97.20;;;;;;1700549;29;20211;-71
2022/10/01 05:02:38;;;;;;;2.10;2.00;;;10.90;97.20;;;;;;1701125;29;20674;-71
2022/10/01 05:03:30;;;;;;;1.80;1.70;;;10.90;97.20;;;;;;1701026;29;20570;-71
2022/10/01 05:04:21;;;;;;;2.55;2.33;;;10.90;97.20;;;;;;1700979;29;20547;-71
2022/10/01 05:05:12;;;;;;;1.70;1.60;;;10.90;97.20;;;;;;1701065;29;20258;-71
2022/10/01 05:06:03;;;;;;;1.70;1.60;;;10.90;97.20;;;;;;1700593;29;20623;-71
2022/10/01 05:06:55;;;;;;;2.25;1.90;;;10.90;97.20;;;;;;1700861;29;20447;-71
2022/10/01 05:07:47;;;;;;;1.92;1.80;;;10.90;97.20;;;;;;1701221;29;20661;-71
2022/10/01 05:08:38;;;;;;;1.60;1.50;;;10.90;97.20;;;;;;1701430;29;20199;-71
2022/10/01 05:09:30;;;;;;;1.70;1.60;;;10.90;97.20;;;;;;1701436;29;20207;-71
2022/10/01 05:10:22;;;;;;;2.78;1.67;;;10.90;97.20;;;;;;1701106;29;20227;-71
2022/10/01 05:11:13;;;;;;;1.83;1.73;;;10.90;97.20;;;;;;1701118;29;20199;-71
2022/10/01 05:12:05;;;;;;;2.15;2.03;;;10.90;97.20;;;;;;1694891;29;20642;-71
2022/10/01 05:12:56;;;;;;;2.15;1.95;;;10.90;97.20;;;;;;1694888;29;20215;-71
2022/10/01 05:13:47;;;;;;;2.30;2.10;;;10.90;97.20;;;;;;1701003;29;20230;-71
2022/10/01 05:14:39;;;;;;;1.83;1.70;;;11.00;97.20;;;;;;1701080;29;20234;-71
2022/10/01 05:15:31;;;;;;;1.73;1.63;;;11.00;97.20;;;;;;1701074;29;20210;-71
2022/10/01 05:16:23;;;;;;;2.25;1.85;;;11.00;97.20;;;;;;1701170;29;20280;-71
2022/10/01 05:17:17;;;;;;;1.88;1.77;;;11.00;97.20;;;;;;1701190;29;20212;-71
2022/10/01 05:18:08;;;;;;;2.10;1.70;;;11.00;97.20;;;;;;1701109;29;20204;-71
2022/10/01 05:18:59;;;;;;;1.52;1.42;;;11.00;97.20;;;;;;1701487;29;20214;-71
2022/10/01 05:19:50;;;;;;;2.17;2.03;;;11.00;97.20;;;;;;1700744;29;20206;-70
2022/10/01 05:20:42;;;;;;;2.27;2.07;;;11.00;97.20;;;;;;1701261;29;20197;-71
2022/10/01 05:21:33;;;;;;;2.10;1.90;;;11.00;97.20;;;;;;1700559;29;20467;-71
2022/10/01 05:22:25;;;;;;;2.78;1.85;;;11.10;97.20;;;;;;1700597;29;20199;-71
2022/10/01 05:23:16;;;;;;;1.70;1.60;;;11.10;97.20;;;;;;1700924;29;20207;-71
2022/10/01 05:24:08;;;;;;;1.80;1.70;;;11.10;97.20;;;;;;1700929;29;20211;-71
2022/10/01 05:24:59;;;;;;;2.75;1.75;;;11.10;97.20;;;;;;1700945;29;20207;-71
2022/10/01 05:25:51;;;;;;;2.00;1.90;;;11.10;97.20;;;;;;1700873;29;20238;-71
2022/10/01 05:26:42;;;;;;;2.05;1.85;;;11.10;97.20;;;;;;1700807;29;20230;-71
2022/10/01 05:27:36;;;;;;;1.63;1.53;;;11.10;97.20;;;;;;1700990;29;20226;-69
2022/10/01 05:28:27;;;;;;;2.05;1.80;;;11.10;97.20;;;;;;1700855;29;20573;-69
2022/10/01 05:29:19;;;;;;;2.80;1.90;;;11.10;97.20;;;;;;1700933;29;20668;-69
2022/10/01 05:30:12;;;;;;;2.10;1.55;;;11.10;97.20;;;;;;1699848;29;20215;-70
2022/10/01 05:31:05;;;;;;;1.50;1.40;;;11.10;97.20;;;;;;1700717;29;20259;-70
2022/10/01 05:31:57;;;;;;;1.70;1.60;;;11.10;97.20;;;;;;1700644;29;20207;-70
2022/10/01 05:32:54;;;;;;;2.25;2.05;;;11.10;97.20;;;;;;1700763;29;20203;-70
2022/10/01 05:33:45;;;;;;;1.50;1.40;;;11.10;97.20;;;;;;1700972;29;20266;-70
2022/10/01 05:34:36;;;;;;;1.80;1.70;;;11.10;97.20;;;;;;1700850;29;20203;-70
2022/10/01 05:35:28;;;;;;;1.98;1.85;;;11.10;97.20;;;;;;1700834;29;20203;-70
2022/10/01 05:36:19;;;;;;;1.88;1.70;;;11.10;97.20;;;;;;1700869;29;20214;-70
2022/10/01 05:37:10;;;;;;;1.67;1.50;;;11.10;97.20;;;;;;1700810;29;20230;-72
2022/10/01 05:38:02;;;;;;;1.85;1.75;;;11.10;97.20;;;;;;1700864;29;20337;-72
2022/10/01 05:38:53;;;;;;;1.58;1.48;;;11.10;97.20;;;;;;1700792;29;20294;-72
2022/10/01 05:39:45;;;;;;;1.83;1.70;;;11.10;97.20;;;;;;1700387;29;20721;-72
2022/10/01 05:40:35;;;;;;;2.10;1.60;;;11.10;97.20;;;;;;1700482;29;20210;-72
2022/10/01 05:41:27;;;;;;;1.73;1.63;;;11.10;97.20;;;;;;1700544;29;20203;-72
2022/10/01 05:42:18;;;;;;;2.58;1.45;;;11.10;97.20;;;;;;1700808;29;20214;-70
2022/10/01 05:43:10;;;;;;;2.27;1.73;;;11.10;97.20;;;;;;1700802;29;20203;-71
2022/10/01 05:44:01;;;;;;;2.05;1.85;;;11.10;97.20;;;;;;1700825;29;20215;-72
2022/10/01 05:44:54;;;;;;;1.80;1.70;;;11.10;97.20;;;;;;1700689;29;20283;-72
2022/10/01 05:45:45;;;;;;;2.10;1.58;;;11.10;97.20;;;;;;1700712;29;20659;-72
2022/10/01 05:46:38;;;;;;;1.93;1.80;;;11.20;97.20;;;;;;1700820;29;20318;-72
2022/10/01 05:47:29;;;;;;;1.77;1.60;;;11.20;97.20;;;;;;1700855;29;20290;-72
2022/10/01 05:48:21;;;;;;;1.60;1.50;;;11.20;97.20;;;;;;1700816;29;20209;-72
2022/10/01 05:49:12;;;;;;;2.10;1.80;;;11.20;97.20;;;;;;1700768;29;20277;-72
2022/10/01 05:50:04;;;;;;;1.67;1.57;;;11.20;97.20;;;;;;1700078;29;20298;-71
2022/10/01 05:50:57;;;;;;;1.95;1.80;;;11.20;97.20;;;;;;1700772;29;20242;-71
2022/10/01 05:51:49;;;;;;;1.75;1.30;;;11.20;97.20;;;;;;1700659;29;20198;-70
2022/10/01 05:52:47;;;;;;;1.80;1.70;;;11.20;97.20;;;;;;1700712;29;20261;-71
2022/10/01 05:53:39;;;;;;;2.30;1.50;;;11.20;97.20;;;;;;1701085;29;20204;-71
2022/10/01 05:54:29;;;;;;;1.30;1.20;;;11.20;97.20;;;;;;1701049;29;20211;-71
2022/10/01 05:55:22;;;;;;;1.97;1.40;;;11.20;97.20;;;;;;1700747;29;20198;-71
2022/10/01 05:56:14;;;;;;;5.47;1.60;;;11.20;97.20;;;;;;1700737;29;20576;-71
2022/10/01 05:57:06;;;;;;;1.55;1.45;;;11.20;97.20;;;;;;1700705;29;20662;-72
2022/10/01 05:58:00;;;;;;;2.53;1.75;;;11.20;97.20;;;;;;1700794;29;20207;-71
2022/10/01 05:58:52;;;;;;;1.27;1.17;;;11.20;97.20;;;;;;1700761;29;20199;-71
2022/10/01 05:59:43;;;;;;;1.60;1.50;;;11.20;97.20;;;;;;1700356;29;20218;-71
2022/10/01 06:00:35;;;;;;;1.60;1.50;;;11.20;97.20;;;;;;1700347;29;20219;-71
2022/10/01 06:01:27;;;;;;;2.10;1.63;;;11.20;97.20;;;;;;1700744;29;20705;-69
2022/10/01 06:02:20;;;;;;;1.58;1.48;;;11.30;97.20;;;;;;1700724;29;20293;-69
2022/10/01 06:03:11;;;;;;;1.45;1.35;;;11.30;97.20;;;;;;1700689;29;20211;-69
2022/10/01 06:04:03;;;;;;;1.90;1.63;;;11.30;97.20;;;;;;1700747;29;20203;-69
2022/10/01 06:04:54;;;;;;;1.52;1.42;;;11.30;97.20;;;;;;1700765;29;20203;-69
2022/10/01 06:05:45;;;;;;;2.03;1.80;;;11.30;97.20;;;;;;1700764;29;20207;-68
2022/10/01 06:06:36;;;;;;;1.90;1.30;;;11.30;97.20;;;;;;1700609;29;20211;-68
2022/10/01 06:07:31;;;;;;;2.93;1.60;;;11.30;97.20;;;;;;1700667;29;20203;-69
2022/10/01 06:08:22;;;;;;;2.17;1.58;;;11.30;97.20;;;;;;1700659;29;20211;-69
2022/10/01 06:09:13;;;;;;;1.50;1.40;;;11.30;97.20;;;;;;1700736;29;20209;-68
2022/10/01 06:10:05;;;;;;;1.42;1.33;;;11.30;97.20;;;;;;1700159;29;20722;-69
2022/10/01 06:11:00;;;;;;;1.40;1.27;;;11.30;97.20;;;;;;1700655;29;20290;-68
2022/10/01 06:11:51;;;;;;;1.75;1.58;;;11.30;97.20;;;;;;1700725;29;20211;-69
2022/10/01 06:12:43;;;;;;;1.73;1.50;;;11.30;97.20;;;;;;1700731;29;20203;-69
2022/10/01 06:13:35;;;;;;;1.63;1.52;;;11.20;97.20;;;;;;1700638;29;20203;-72
2022/10/01 06:14:26;;;;;;;1.80;1.70;;;11.20;97.20;;;;;;1700592;29;20195;-70
2022/10/01 06:15:17;;;;;;;1.70;1.60;;;11.20;97.20;;;;;;1700668;29;20206;-70
2022/10/01 06:16:09;;;;;;;1.35;1.25;;;11.30;97.20;;;;;;1700679;29;20210;-70
2022/10/01 06:17:00;;;;;;;1.80;1.70;;;11.30;97.20;;;;;;1700632;29;20207;-70
2022/10/01 06:17:53;;;;;;;1.67;1.40;;;11.30;97.20;;;;;;1701475;29;20207;-70
2022/10/01 06:18:45;;;;;;;1.80;1.60;;;11.20;97.20;;;;;;1701729;29;20207;-69
2022/10/01 06:19:37;;;;;;;2.70;1.55;;;11.20;97.20;;;;;;1701794;29;20230;-69
2022/10/01 06:20:28;;;;;;;1.70;1.60;;;11.20;97.20;;;;;;1701761;29;20229;-69
2022/10/01 06:21:20;;;;;;;3.90;1.60;;;11.20;97.20;;;;;;1701938;29;20195;-69
2022/10/01 06:22:11;;;;;;;2.97;1.40;;;11.20;97.20;;;;;;1702039;29;20214;-69
2022/10/01 06:23:04;;;;;;;1.70;1.60;;;11.30;97.20;;;;;;1702062;29;20206;-69
2022/10/01 06:23:55;;;;;;;1.58;1.48;;;11.20;97.20;;;;;;1702013;29;20211;-70
2022/10/01 06:24:47;;;;;;;1.60;1.50;;;11.20;97.20;;;;;;1701908;29;20286;-70
2022/10/01 06:25:38;;;;;;;1.88;1.65;;;11.30;97.20;;;;;;1702017;29;20670;-69
2022/10/01 06:26:30;;;;;;;2.10;1.90;;;11.20;97.20;;;;;;1701829;29;20285;-70
2022/10/01 06:27:21;;;;;;;2.05;1.80;;;11.20;97.20;;;;;;1701960;29;20234;-70
2022/10/01 06:28:14;;;;;;;2.00;1.80;;;11.20;97.20;;;;;;1701994;29;20207;-69
2022/10/01 06:29:04;;;;;;;1.60;1.50;;;11.20;97.20;;;;;;1701660;29;20301;-69
2022/10/01 06:29:56;;;;;;;1.70;1.60;;;11.20;97.20;;;;;;1701337;29;20223;-70
2022/10/01 06:30:48;;;;;;;1.92;1.60;;;11.20;97.20;;;;;;1700849;29;20206;-69
2022/10/01 06:31:40;;;;;;;1.90;1.55;;;11.20;97.20;;;;;;1704923;29;20226;-69
2022/10/01 06:32:31;;;;;;;2.00;1.70;;;11.20;97.20;;;;;;1706405;28;20199;-69
2022/10/01 06:33:24;;;;;;;1.67;1.57;;;11.20;97.20;;;;;;1703934;29;20191;-69
2022/10/01 06:34:15;;;;;;;2.17;1.63;;;11.20;97.20;;;;;;1708550;28;20288;-70
2022/10/01 06:35:07;;;;;;;1.67;1.40;;;11.20;97.20;;;;;;1708599;28;20261;-69
2022/10/01 06:35:58;;;;;;;1.55;1.45;;;11.20;97.20;;;;;;1695401;29;20600;-69
2022/10/01 06:36:49;;;;;;;1.60;1.33;;;11.20;97.20;;;;;;1695314;29;20644;-69
2022/10/01 06:37:40;;;;;;;2.45;1.48;;;11.10;97.20;;;;;;1695401;29;20639;-69
2022/10/01 06:38:32;;;;;;;2.90;2.20;;;11.10;97.20;;;;;;1695342;29;20195;-69
2022/10/01 06:39:22;;;;;;;2.40;1.42;;;11.10;97.20;;;;;;1695419;29;20232;-69
2022/10/01 06:40:14;;;;;;;2.30;1.67;;;11.10;97.20;;;;;;1701091;29;20234;-69
2022/10/01 06:41:05;;;;;;;1.98;1.40;;;11.10;97.20;;;;;;1701271;29;20571;-69
2022/10/01 06:41:57;;;;;;;2.07;1.50;;;11.10;97.20;;;;;;1698420;29;20195;-69
2022/10/01 06:42:49;;;;;;;1.48;1.38;;;11.10;97.20;;;;;;1701000;29;20451;-69
2022/10/01 06:43:40;;;;;;;1.50;1.40;;;11.10;97.20;;;;;;1701712;29;20203;-69
2022/10/01 06:44:31;;;;;;;2.72;1.73;;;11.10;97.20;;;;;;1701823;29;20210;-70
2022/10/01 06:45:23;;;;;;;2.00;1.87;;;11.10;97.20;;;;;;1701646;29;20201;-70
2022/10/01 06:46:14;;;;;;;1.85;1.50;;;11.10;97.20;;;;;;1700769;29;20458;-70
2022/10/01 06:47:05;;;;;;;1.83;1.40;;;11.20;97.20;;;;;;1701522;29;20314;-69
2022/10/01 06:47:58;;;;;;;1.77;1.55;;;11.20;97.20;;;;;;1701905;29;20210;-68
2022/10/01 06:48:51;;;;;;;1.98;1.80;;;11.20;97.20;;;;;;1701926;29;20206;-68
2022/10/01 06:49:42;;;;;;;1.90;1.73;;;11.20;97.20;;;;;;1701662;29;20606;-68
2022/10/01 06:50:34;;;;;;;2.30;1.70;;;11.20;97.20;;;;;;1701591;29;20293;-68
2022/10/01 06:52:49;;;;;;;4.05;1.77;;;11.20;97.20;;;;;;1701755;29;20191;-68
2022/10/01 06:53:40;;;;;;;1.75;1.60;;;11.20;97.20;;;;;;1702029;29;20282;-68
2022/10/01 06:54:31;;;;;;;1.73;1.52;;;11.20;97.20;;;;;;1701925;29;20211;-68
2022/10/01 06:55:27;;;;;;;2.47;1.73;;;11.20;97.20;;;;;;1701817;29;20205;-69
2022/10/01 06:56:18;;;;;;;1.77;1.50;;;11.20;97.20;;;;;;1701855;29;20211;-72
2022/10/01 06:57:10;;;;;;;2.30;1.87;;;11.30;97.20;;;;;;1701203;29;20305;-69
2022/10/01 06:58:03;;;;;;;1.50;1.40;;;11.30;97.20;;;;;;1700229;29;20234;-69
2022/10/01 06:58:54;;;;;;;2.55;1.83;;;11.30;97.20;;;;;;1700973;29;20199;-68
2022/10/01 06:59:45;;;;;;;2.00;1.60;;;11.30;97.20;;;;;;1699845;29;21966;-69
2022/10/01 07:00:37;;;;;;;2.03;1.87;;;11.30;97.20;;;;;;1698690;29;20655;-69
2022/10/01 07:01:30;;;;;;;2.30;2.10;;;11.30;97.20;;;;;;1697318;29;20196;-70
2022/10/01 07:02:27;;;;;;;1.60;1.50;;;11.30;97.20;;;;;;1695295;29;20674;-70
2022/10/01 07:03:20;;;;;;;2.45;1.80;;;11.30;97.20;;;;;;1695311;29;20335;-70
2022/10/01 07:04:13;;;;;;;1.63;1.52;;;11.30;97.20;;;;;;1695231;29;20701;-70
2022/10/01 07:05:04;;;;;;;1.98;1.77;;;11.30;97.20;;;;;;1695278;29;20216;-70
2022/10/01 07:06:01;;;;;;;1.73;1.60;;;11.30;97.20;;;;;;1700709;29;20207;-70
2022/10/01 07:06:54;;;;;;;2.05;1.55;;;11.30;97.20;;;;;;1701420;29;20242;-70
2022/10/01 07:07:47;;;;;;;1.92;1.70;;;11.30;97.20;;;;;;1701757;29;20214;-70
2022/10/01 07:08:37;;;;;;;1.92;1.80;;;11.30;97.20;;;;;;1701865;29;20208;-70
2022/10/01 07:09:29;;;;;;;1.43;1.33;;;11.30;97.20;;;;;;1701771;29;20203;-70
2022/10/01 07:10:21;;;;;;;1.77;1.67;;;11.40;97.20;;;;;;1701445;29;20227;-70
2022/10/01 07:11:13;;;;;;;1.70;1.40;;;11.30;97.20;;;;;;1701749;29;20235;-70
2022/10/01 07:12:04;;;;;;;2.00;1.65;;;11.40;97.20;;;;;;1701785;29;20210;-70
2022/10/01 07:12:56;;;;;;;1.63;1.53;;;11.40;97.20;;;;;;1701702;29;20206;-70
2022/10/01 07:13:48;;;;;;;1.98;1.70;;;11.40;97.20;;;;;;1701718;29;20451;-69
2022/10/01 07:14:40;;;;;;;2.10;1.90;;;11.40;97.20;;;;;;1701718;29;20239;-69
2022/10/01 07:15:31;;;;;;;1.70;1.60;;;11.40;97.20;;;;;;1701707;29;20203;-69
2022/10/01 07:16:23;;;;;;;3.17;1.90;;;11.40;97.20;;;;;;1701526;29;20650;-69
2022/10/01 07:17:14;;;;;;;1.83;1.60;;;11.40;97.20;;;;;;1701676;29;20199;-69
2022/10/01 07:18:08;;;;;;;1.90;1.80;;;11.40;97.20;;;;;;1701634;29;20211;-69
2022/10/01 07:18:59;;;;;;;1.80;1.70;;;11.40;97.20;;;;;;1701676;29;20203;-69
2022/10/01 07:19:52;;;;;;;1.60;1.50;;;11.40;97.20;;;;;;1701331;29;20207;-69
2022/10/01 07:20:43;;;;;;;2.22;1.80;;;11.50;97.20;;;;;;1701673;29;20214;-69
2022/10/01 07:21:34;;;;;;;2.20;1.70;;;11.50;97.20;;;;;;1701635;29;20209;-69
2022/10/01 07:22:25;;;;;;;3.65;1.70;;;11.50;97.20;;;;;;1701703;29;20439;-69
2022/10/01 07:23:17;;;;;;;1.53;1.37;;;11.50;97.20;;;;;;1701756;29;20207;-69
2022/10/01 07:24:08;;;;;;;2.22;1.42;;;11.50;97.20;;;;;;1701663;29;20669;-69
2022/10/01 07:24:59;;;;;;;2.03;1.80;;;11.50;97.20;;;;;;1701591;29;20661;-69
2022/10/01 07:25:50;;;;;;;2.03;1.45;;;11.50;97.20;;;;;;1701323;29;20451;-69
2022/10/01 07:26:42;;;;;;;1.87;1.63;;;11.50;97.20;;;;;;1701617;29;20684;-69
2022/10/01 07:27:32;;;;;;;7.07;2.20;;;11.50;97.20;;;;;;1701533;29;20632;-69
2022/10/01 07:28:25;;;;;;;2.37;2.10;;;11.50;97.20;;;;;;1701666;29;20222;-69
2022/10/01 07:29:15;;;;;;;1.65;1.30;;;11.50;97.20;;;;;;1701076;29;20199;-69
2022/10/01 07:30:07;;;;;;;1.70;1.60;;;11.50;97.20;;;;;;1701030;29;20323;-68
2022/10/01 07:31:01;;;;;;;3.35;1.50;;;11.50;97.20;;;;;;1701664;29;20814;-69
2022/10/01 07:31:56;;;;;;;1.50;1.40;;;11.50;97.20;;;;;;1701628;28;20207;-70
2022/10/01 07:32:47;;;;;;;2.08;1.65;;;11.50;97.20;;;;;;1701610;29;20250;-69
2022/10/01 07:33:39;;;;;;;2.45;1.70;;;11.50;97.20;;;;;;1701642;29;20203;-69
2022/10/01 07:34:31;;;;;;;2.15;1.70;;;11.50;97.20;;;;;;1700244;29;20262;-68
2022/10/01 07:35:23;;;;;;;1.60;1.50;;;11.50;97.20;;;;;;1701549;29;20210;-69
2022/10/01 07:36:15;;;;;;;2.10;1.90;;;11.50;97.20;;;;;;1701485;29;20218;-69
2022/10/01 07:37:06;;;;;;;2.55;1.70;;;11.50;97.20;;;;;;1701430;29;20597;-69
2022/10/01 07:37:58;;;;;;;4.30;1.80;;;11.50;97.20;;;;;;1701656;29;20199;-69
2022/10/01 07:38:50;;;;;;;1.58;1.48;;;11.50;97.20;;;;;;1701509;29;20222;-69
2022/10/01 07:39:41;;;;;;;2.00;1.80;;;11.50;97.20;;;;;;1701509;29;20238;-69
2022/10/01 07:40:32;;;;;;;1.75;1.65;;;11.50;97.20;;;;;;1701042;29;20212;-69
2022/10/01 07:41:24;;;;;;;2.43;1.67;;;11.50;97.20;;;;;;1701494;29;20214;-69
2022/10/01 07:42:15;;;;;;;2.95;1.70;;;11.50;97.20;;;;;;1701527;29;20451;-69
2022/10/01 07:43:08;;;;;;;1.90;1.50;;;11.50;97.20;;;;;;1701488;29;20294;-69
2022/10/01 07:44:00;;;;;;;1.80;1.70;;;11.50;97.20;;;;;;1701628;29;20210;-69
2022/10/01 07:44:52;;;;;;;2.47;1.80;;;11.50;97.20;;;;;;1701578;29;20439;-68
2022/10/01 07:45:43;;;;;;;2.00;1.80;;;11.50;97.20;;;;;;1701501;29;20211;-69
2022/10/01 07:46:35;;;;;;;2.08;1.80;;;11.50;97.20;;;;;;1701798;29;20588;-69
2022/10/01 07:47:26;;;;;;;1.33;1.23;;;11.50;97.20;;;;;;1701559;29;20235;-69
2022/10/01 07:48:18;;;;;;;1.60;1.50;;;11.50;97.20;;;;;;1701523;29;20196;-69
2022/10/01 07:49:09;;;;;;;2.15;2.00;;;11.50;97.20;;;;;;1701448;29;20230;-69
2022/10/01 07:50:00;;;;;;;1.70;1.50;;;11.50;97.20;;;;;;1697534;29;20215;-69
2022/10/01 07:50:53;;;;;;;1.70;1.60;;;11.50;97.20;;;;;;1696487;29;20820;-68
2022/10/01 07:51:44;;;;;;;2.38;1.85;;;11.50;97.20;;;;;;1696248;29;20206;-69
2022/10/01 07:52:35;;;;;;;4.00;1.45;;;11.50;97.20;;;;;;1698355;29;20203;-69
2022/10/01 07:53:27;;;;;;;2.20;1.97;;;11.60;97.20;;;;;;1696258;29;20207;-68
2022/10/01 07:54:19;;;;;;;1.65;1.55;;;11.60;97.20;;;;;;1697759;29;20732;-69
2022/10/01 07:55:13;;;;;;;2.03;1.92;;;11.60;97.20;;;;;;1695509;29;20202;-69
2022/10/01 07:56:04;;;;;;;5.45;1.98;;;11.60;97.20;;;;;;1700718;29;20286;-69
2022/10/01 07:56:58;;;;;;;1.85;1.58;;;11.60;97.20;;;;;;1701221;29;20209;-69
2022/10/01 07:57:50;;;;;;;1.70;1.52;;;11.60;97.20;;;;;;1701327;29;20728;-69
2022/10/01 07:58:42;;;;;;;4.13;1.80;;;11.60;97.20;;;;;;1701204;29;20206;-69
2022/10/01 07:59:32;;;;;;;1.60;1.50;;;11.60;97.20;;;;;;1701324;29;20214;-69
2022/10/01 08:00:26;;;;;;;1.80;1.67;;;11.60;97.20;;;;;;1701102;29;20199;-69
2022/10/01 08:01:17;;;;;;;1.67;1.55;;;11.60;97.20;;;;;;1701216;29;20210;-69
2022/10/01 08:02:14;;;;;;;1.83;1.73;;;11.60;97.20;;;;;;1699554;29;20287;-69
2022/10/01 08:03:05;;;;;;;3.97;1.77;;;11.60;97.20;;;;;;1699148;29;20199;-69
2022/10/01 08:03:57;;;;;;;1.60;1.50;;;11.60;97.20;;;;;;1701204;29;20199;-69
2022/10/01 08:05:58;;;;;;;3.28;1.58;;;11.50;97.20;;;;;;1701481;29;20247;-70
2022/10/01 08:06:50;;;;;;;3.15;1.50;;;11.50;97.20;;;;;;1701283;29;20207;-69
2022/10/01 08:07:41;;;;;;;2.45;1.60;;;11.50;97.20;;;;;;1701524;29;20234;-70
2022/10/01 08:08:33;;;;;;;1.60;1.50;;;11.50;97.20;;;;;;1701549;29;20266;-69
2022/10/01 08:09:23;;;;;;;1.60;1.50;;;11.50;97.20;;;;;;1701369;29;20207;-69
2022/10/01 08:10:17;;;;;;;3.30;1.40;;;11.50;97.20;;;;;;1701139;29;20243;-69
2022/10/01 08:11:09;;;;;;;1.95;1.70;;;11.50;97.20;;;;;;1701232;29;20678;-69
2022/10/01 08:12:01;;;;;;;1.60;1.50;;;11.50;97.20;;;;;;1701271;29;20233;-69
2022/10/01 08:12:58;;;;;;;1.73;1.40;;;11.50;97.20;;;;;;1701350;29;20573;-69
2022/10/01 08:13:50;;;;;;;1.98;1.65;;;11.50;97.20;;;;;;1701285;29;20688;-69
2022/10/01 08:14:41;;;;;;;2.42;1.48;;;11.50;97.20;;;;;;1701379;29;20199;-69
2022/10/01 08:15:32;;;;;;;1.60;1.40;;;11.50;97.20;;;;;;1701402;29;20204;-69
2022/10/01 08:16:27;;;;;;;2.58;1.88;;;11.50;97.20;;;;;;1701298;29;20207;-69
2022/10/01 08:17:19;;;;;;;2.25;1.58;;;11.50;97.20;;;;;;1701435;29;20234;-69
2022/10/01 08:18:10;;;;;;;2.65;1.40;;;11.50;97.20;;;;;;1701319;29;20214;-69
2022/10/01 08:19:02;;;;;;;1.80;1.30;;;11.50;97.20;;;;;;1701379;29;20218;-70
2022/10/01 08:19:53;;;;;;;1.73;1.30;;;11.50;97.20;;;;;;1701161;29;20741;-69
2022/10/01 08:20:45;;;;;;;3.40;1.40;;;11.50;97.20;;;;;;1701433;29;20725;-69
2022/10/01 08:21:38;;;;;;;1.60;1.48;;;11.50;97.20;;;;;;1698833;29;20215;-69
2022/10/01 08:22:30;;;;;;;2.17;1.50;;;11.50;97.20;;;;;;1698903;29;20290;-70
2022/10/01 08:23:21;;;;;;;1.70;1.50;;;11.50;97.20;;;;;;1698971;29;20610;-70
2022/10/01 08:24:12;;;;;;;2.40;1.30;;;11.50;97.20;;;;;;1699055;29;20609;-69
2022/10/01 08:25:04;;;;;;;1.75;1.65;;;11.50;97.20;;;;;;1698628;29;20207;-69
2022/10/01 08:26:00;;;;;;;2.22;1.65;;;11.50;97.20;;;;;;1699169;29;20206;-69
2022/10/01 08:26:52;;;;;;;2.67;1.67;;;11.50;97.20;;;;;;1698824;29;20195;-69
2022/10/01 08:27:43;;;;;;;2.10;1.83;;;11.50;97.20;;;;;;1698678;29;20238;-69
2022/10/01 08:28:34;;;;;;;1.67;1.58;;;11.50;97.20;;;;;;1699383;29;20735;-69
2022/10/01 08:29:26;;;;;;;2.77;1.70;;;11.50;97.20;;;;;;1699422;29;20211;-69
2022/10/01 08:30:17;;;;;;;1.60;1.50;;;11.40;97.20;;;;;;1698310;29;20471;-69
2022/10/01 08:31:09;;;;;;;2.37;2.17;;;11.40;97.20;;;;;;1698868;29;20207;-70
2022/10/01 08:32:00;;;;;;;2.75;1.80;;;11.40;97.20;;;;;;1699564;29;20206;-69
2022/10/01 08:32:54;;;;;;;2.95;1.60;;;11.50;97.20;;;;;;1698609;29;21962;-69
2022/10/01 08:33:45;;;;;;;1.80;1.70;;;11.50;97.20;;;;;;1698587;29;20227;-69
2022/10/01 08:34:37;;;;;;;1.70;1.47;;;11.50;97.20;;;;;;1698833;29;20207;-70
2022/10/01 08:35:28;;;;;;;3.65;1.75;;;11.50;97.20;;;;;;1698817;29;20638;-70
2022/10/01 08:36:20;;;;;;;2.50;1.70;;;11.50;97.20;;;;;;1698616;29;20199;-69
2022/10/01 08:37:13;;;;;;;2.45;1.85;;;11.50;97.20;;;;;;1698789;29;20203;-69
2022/10/01 08:38:05;;;;;;;2.97;1.80;;;11.50;97.20;;;;;;1698633;29;20203;-69
2022/10/01 08:38:56;;;;;;;2.20;1.58;;;11.50;97.20;;;;;;1699507;29;20203;-69
2022/10/01 08:39:48;;;;;;;1.80;1.70;;;11.50;97.20;;;;;;1698575;29;20196;-69
2022/10/01 08:40:42;;;;;;;2.03;1.80;;;11.40;97.20;;;;;;1698651;29;20515;-69
2022/10/01 08:41:44;;;;;;;1.90;1.60;;;11.40;97.20;;;;;;1697856;29;20205;-69
2022/10/01 08:42:46;;;;;;;2.17;1.83;;;11.40;97.20;;;;;;1698847;29;20230;-69
2022/10/01 08:43:39;;;;;;;1.60;1.50;;;11.40;97.20;;;;;;1698567;29;20203;-69
2022/10/01 08:44:36;;;;;;;2.10;1.35;;;11.40;97.20;;;;;;1698888;29;20215;-69
2022/10/01 08:45:34;;;;;;;3.65;3.00;;;11.40;97.20;;;;;;1699425;29;20286;-69
2022/10/01 08:46:29;;;;;;;3.20;2.00;;;11.50;97.20;;;;;;1698142;29;20211;-69
2022/10/01 08:47:32;;;;;;;2.47;2.28;;;11.50;97.20;;;;;;1698373;29;20207;-69
2022/10/01 08:48:43;;;;;;;2.35;2.08;;;11.50;97.20;;;;;;1698183;29;20248;-69
2022/10/01 08:49:38;;;;;;;2.30;2.10;;;11.50;97.20;;;;;;1698174;29;20703;-69
2022/10/01 08:50:42;;;;;;;3.42;2.58;;;11.50;97.20;;;;;;1698699;29;20227;-69
2022/10/01 08:51:38;;;;;;;1.92;1.83;;;11.50;97.20;;;;;;1699028;29;20243;-69
2022/10/01 08:52:37;;;;;;;1.83;1.73;;;11.50;97.20;;;;;;1698827;29;20237;-69
2022/10/01 08:53:32;;;;;;;2.20;1.40;;;11.50;97.20;;;;;;1698519;29;20669;-68
2022/10/01 08:54:32;;;;;;;2.60;1.90;;;11.50;97.20;;;;;;1698579;29;20270;-69
2022/10/01 08:55:26;;;;;;;1.95;1.75;;;11.50;97.20;;;;;;1698606;29;20200;-69
2022/10/01 08:56:22;;;;;;;1.60;1.50;;;11.50;97.20;;;;;;1698639;29;20654;-68
2022/10/01 08:57:16;;;;;;;2.75;1.58;;;11.50;97.20;;;;;;1698427;29;20207;-69
2022/10/01 08:58:12;;;;;;;1.50;1.40;;;11.50;97.20;;;;;;1699322;29;20330;-69
2022/10/01 08:59:09;;;;;;;1.50;1.40;;;11.50;97.20;;;;;;1698150;29;20207;-70
2022/10/01 09:00:06;;;;;;;2.17;2.00;;;11.50;97.20;;;;;;1697836;29;20682;-70
2022/10/01 09:00:57;;;;;;;1.92;1.73;;;11.50;97.20;;;;;;1698436;29;20203;-69
2022/10/01 09:01:49;;;;;;;4.73;1.80;;;11.50;97.20;;;;;;1698073;29;20218;-70
2022/10/01 09:02:41;;;;;;;1.77;1.67;;;11.50;97.20;;;;;;1698214;29;20252;-68
2022/10/01 09:03:34;;;;;;;3.28;1.67;;;11.50;97.20;;;;;;1698476;29;20199;-69
2022/10/01 09:04:25;;;;;;;1.73;1.63;;;11.50;97.20;;;;;;1698711;29;20238;-69
2022/10/01 09:05:23;;;;;;;2.10;1.90;;;11.50;97.20;;;;;;1699131;29;20201;-67
2022/10/01 09:06:19;;;;;;;2.65;1.95;;;11.50;97.20;;;;;;1698601;29;20204;-68
2022/10/01 09:07:22;;;;;;;5.07;2.40;;;11.50;97.20;;;;;;1698274;29;20207;-69
2022/10/01 09:08:22;;;;;;;1.88;1.77;;;11.50;97.20;;;;;;1698663;29;20243;-68
2022/10/01 09:09:32;;;;;;;1.50;1.40;;;11.50;97.20;;;;;;1698642;29;20207;-68
2022/10/01 09:10:34;;;;;;;1.65;1.55;;;11.60;97.20;;;;;;1698138;29;20626;-68
2022/10/01 09:11:38;;;;;;;2.03;1.83;;;11.60;97.20;;;;;;1699203;29;20661;-68
2022/10/01 09:12:41;;;;;;;2.70;2.20;;;11.60;97.20;;;;;;1698541;29;20203;-68
2022/10/01 09:13:58;;;;;;;2.13;1.98;;;11.60;97.20;;;;;;1698518;29;20650;-68
2022/10/01 09:15:02;;;;;;;2.35;1.70;;;11.60;97.20;;;;;;1698448;29;20199;-68
2022/10/01 09:16:01;;;;;;;3.55;2.25;;;11.60;97.20;;;;;;1698673;29;20191;-68
2022/10/01 09:17:01;;;;;;;1.95;1.73;;;11.60;97.20;;;;;;1698664;29;20222;-68
2022/10/01 09:18:05;;;;;;;2.08;1.40;;;11.70;97.20;;;;;;1699528;29;20211;-69
2022/10/01 09:19:09;;;;;;;1.58;1.48;;;11.70;97.20;;;;;;1698610;29;20242;-72
2022/10/01 09:20:10;;;;;;;2.42;2.05;;;11.70;97.20;;;;;;1698132;29;20219;-72
2022/10/01 09:21:01;;;;;;;2.25;2.00;;;11.70;97.20;;;;;;1698343;29;20199;-72
2022/10/01 09:21:57;;;;;;;2.10;2.00;;;11.70;97.20;;;;;;1698731;29;20199;-73
2022/10/01 09:23:02;;;;;;;2.55;2.33;;;11.70;97.20;;;;;;1698409;29;20211;-74
2022/10/01 09:24:02;;;;;;;2.58;2.38;;;11.70;97.20;;;;;;1698832;29;21125;-74
2022/10/01 09:25:01;;;;;;;1.90;1.80;;;11.80;97.20;;;;;;1698492;29;20211;-72
2022/10/01 09:25:52;;;;;;;2.70;2.08;;;11.80;97.20;;;;;;1698788;29;20274;-73
2022/10/01 09:26:48;;;;;;;2.67;1.63;;;11.80;97.20;;;;;;1698669;29;20215;-73
2022/10/01 09:27:39;;;;;;;3.08;2.40;;;11.80;97.20;;;;;;1698828;29;20207;-73
2022/10/01 09:28:33;;;;;;;2.42;2.22;;;11.80;97.20;;;;;;1698786;29;20231;-71
2022/10/01 09:29:31;;;;;;;2.28;2.08;;;11.80;97.20;;;;;;1698571;29;20207;-72
2022/10/01 09:30:25;;;;;;;3.03;2.50;;;11.80;97.20;;;;;;1697728;29;20223;-72
2022/10/01 09:31:20;;;;;;;2.55;2.35;;;11.80;97.20;;;;;;1698476;29;20212;-73
2022/10/01 09:32:16;;;;;;;3.35;2.20;;;11.90;97.20;;;;;;1698556;29;20199;-72
2022/10/01 09:33:19;;;;;;;1.70;1.60;;;11.90;97.20;;;;;;1698412;29;20214;-73
2022/10/01 09:34:13;;;;;;;3.42;1.60;;;11.90;97.20;;;;;;1698887;29;20705;-72
2022/10/01 09:35:19;;;;;;;1.70;1.60;;;11.90;97.20;;;;;;1697765;29;20214;-73
2022/10/01 09:36:21;;;;;;;1.88;1.77;;;11.90;97.20;;;;;;1698546;29;20654;-72
2022/10/01 09:37:22;;;;;;;1.70;1.60;;;11.90;97.20;;;;;;1698486;29;20210;-74
2022/10/01 09:38:20;;;;;;;1.70;1.60;;;11.90;97.20;;;;;;1698776;29;20909;-73
2022/10/01 09:39:18;;;;;;;1.98;1.80;;;11.90;97.20;;;;;;1698611;29;20685;-73